createdAt,value
2018-09-16T00:00:34.772Z,6.22
2018-09-16T00:03:02.917Z,4.20
2018-09-16T00:05:31.525Z,7.30
2018-09-16T00:07:59.788Z,6.58
2018-09-16T00:10:28.017Z,4.60
2018-09-16T00:12:56.217Z,5.30
2018-09-16T00:15:24.627Z,4.97
2018-09-16T00:17:52.851Z,5.58
2018-09-16T00:20:21.329Z,6.40
2018-09-16T00:22:49.445Z,7.45
2018-09-16T00:25:17.613Z,5.58
2018-09-16T00:27:45.706Z,6.30
2018-09-16T00:30:13.816Z,5.33
2018-09-16T00:32:45.183Z,7.25
2018-09-16T00:35:14.438Z,6.87
2018-09-16T00:37:42.547Z,8.30
2018-09-16T00:40:11.228Z,5.87
2018-09-16T00:42:39.480Z,5.33
2018-09-16T00:45:09.004Z,5.85
2018-09-16T00:47:37.420Z,5.53
2018-09-16T00:50:06.239Z,5.08
2018-09-16T00:52:34.392Z,5.55
2018-09-16T00:55:02.505Z,8.30
2018-09-16T00:57:30.636Z,6.78
2018-09-16T00:59:58.805Z,4.90
2018-09-16T01:02:27.651Z,7.67
2018-09-16T01:04:55.781Z,5.03
2018-09-16T01:07:23.957Z,7.37
2018-09-16T01:09:52.052Z,5.92
2018-09-16T01:12:20.133Z,5.78
2018-09-16T01:14:48.220Z,5.83
2018-09-16T01:17:16.342Z,7.15
2018-09-16T01:19:45.450Z,5.45
2018-09-16T01:22:13.641Z,5.05
2018-09-16T01:24:42.024Z,5.92
2018-09-16T01:27:10.164Z,7.35
2018-09-16T01:29:38.256Z,6.72
2018-09-16T01:32:06.428Z,5.85
2018-09-16T01:34:34.725Z,7.55
2018-09-16T01:37:08.088Z,9.30
2018-09-16T01:39:36.177Z,7.05
2018-09-16T01:42:04.403Z,6.35
2018-09-16T01:44:32.523Z,5.78
2018-09-16T01:47:00.680Z,6.85
2018-09-16T01:49:29.529Z,7.83
2018-09-16T01:51:57.604Z,6.97
2018-09-16T01:54:25.824Z,9.90
2018-09-16T01:56:53.990Z,8.00
2018-09-16T01:59:22.133Z,7.03
2018-09-16T02:01:50.221Z,7.20
2018-09-16T02:04:18.317Z,6.67
2018-09-16T02:06:46.416Z,7.60
2018-09-16T02:09:14.511Z,7.60
2018-09-16T02:11:42.607Z,7.30
2018-09-16T02:14:10.833Z,8.53
2018-09-16T02:16:39.212Z,7.85
2018-09-16T02:19:07.396Z,9.00
2018-09-16T02:21:35.536Z,6.70
2018-09-16T02:24:03.683Z,8.93
2018-09-16T02:26:32.070Z,9.85
2018-09-16T02:29:00.223Z,8.00
2018-09-16T02:31:28.847Z,7.15
2018-09-16T02:33:57.051Z,9.28
2018-09-16T02:36:25.183Z,8.68
2018-09-16T02:38:53.743Z,7.47
2018-09-16T02:41:21.825Z,7.30
2018-09-16T02:43:49.968Z,8.68
2018-09-16T02:46:18.699Z,7.72
2018-09-16T02:48:46.798Z,7.80
2018-09-16T02:51:15.660Z,10.20
2018-09-16T02:53:43.764Z,8.95
2018-09-16T02:56:12.097Z,9.45
2018-09-16T02:58:40.184Z,8.60
2018-09-16T03:01:08.417Z,8.83
2018-09-16T03:03:37.544Z,8.60
2018-09-16T03:06:05.777Z,10.48
2018-09-16T03:08:33.934Z,8.58
2018-09-16T03:11:02.286Z,8.58
2018-09-16T03:13:30.654Z,10.23
2018-09-16T03:15:58.931Z,8.90
2018-09-16T03:18:27.452Z,9.03
2018-09-16T03:20:55.653Z,9.23
2018-09-16T03:23:23.777Z,8.73
2018-09-16T03:25:51.904Z,11.03
2018-09-16T03:28:20.224Z,7.90
2018-09-16T03:30:48.975Z,9.23
2018-09-16T03:33:17.110Z,11.65
2018-09-16T03:35:45.192Z,9.48
2018-09-16T03:38:13.300Z,8.80
2018-09-16T03:40:41.492Z,7.90
2018-09-16T03:43:09.696Z,10.10
2018-09-16T03:45:37.794Z,8.85
2018-09-16T03:48:05.913Z,10.95
2018-09-16T03:50:34.035Z,8.38
2018-09-16T03:53:02.187Z,10.88
2018-09-16T03:55:30.282Z,9.23
2018-09-16T03:57:58.461Z,8.85
2018-09-16T04:00:27.551Z,9.90
2018-09-16T04:02:55.696Z,9.38
2018-09-16T04:05:24.024Z,9.00
2018-09-16T04:07:52.452Z,9.10
2018-09-16T04:10:20.712Z,9.65
2018-09-16T04:12:49.495Z,8.93
2018-09-16T04:15:18.071Z,9.40
2018-09-16T04:17:46.179Z,9.70
2018-09-16T04:20:14.462Z,9.30
2018-09-16T04:22:42.570Z,9.75
2018-09-16T04:25:10.661Z,11.28
2018-09-16T04:27:39.070Z,10.75
2018-09-16T04:30:07.860Z,10.13
2018-09-16T04:32:36.358Z,12.33
2018-09-16T04:35:04.552Z,15.38
2018-09-16T04:37:32.648Z,10.23
2018-09-16T04:40:01.694Z,11.38
2018-09-16T04:42:29.812Z,11.38
2018-09-16T04:44:57.903Z,10.80
2018-09-16T04:47:26.464Z,12.00
2018-09-16T04:49:55.321Z,13.90
2018-09-16T04:52:23.420Z,11.08
2018-09-16T04:54:51.575Z,11.25
2018-09-16T04:57:19.780Z,11.68
2018-09-16T04:59:48.012Z,13.85
2018-09-16T05:02:16.106Z,12.70
2018-09-16T05:04:44.284Z,13.93
2018-09-16T05:07:12.550Z,12.13
2018-09-16T05:09:40.651Z,14.75
2018-09-16T05:12:08.785Z,12.07
2018-09-16T05:14:36.884Z,12.30
2018-09-16T05:17:05.036Z,12.53
2018-09-16T05:19:33.146Z,12.33
2018-09-16T05:22:01.287Z,17.70
2018-09-16T05:24:29.428Z,14.00
2018-09-16T05:26:57.627Z,12.68
2018-09-16T05:29:25.750Z,12.85
2018-09-16T05:31:53.843Z,13.70
2018-09-16T05:34:21.949Z,12.33
2018-09-16T05:36:50.041Z,12.47
2018-09-16T05:39:18.268Z,12.73
2018-09-16T05:41:46.360Z,12.28
2018-09-16T05:44:14.929Z,13.38
2018-09-16T05:46:43.053Z,12.98
2018-09-16T05:49:11.271Z,11.85
2018-09-16T05:51:39.360Z,12.10
2018-09-16T05:54:07.478Z,12.00
2018-09-16T05:56:35.649Z,12.10
2018-09-16T05:59:03.951Z,11.43
2018-09-16T06:01:32.209Z,11.83
2018-09-16T06:04:00.467Z,11.30
2018-09-16T06:06:28.523Z,11.00
2018-09-16T06:08:56.644Z,11.48
2018-09-16T06:11:24.836Z,15.65
2018-09-16T06:13:52.988Z,15.32
2018-09-16T06:16:21.295Z,12.78
2018-09-16T06:18:49.472Z,11.90
2018-09-16T06:21:17.704Z,12.28
2018-09-16T06:23:46.052Z,11.50
2018-09-16T06:26:15.335Z,12.78
2018-09-16T06:28:43.470Z,12.88
2018-09-16T06:31:12.164Z,15.45
2018-09-16T06:33:40.337Z,12.05
2018-09-16T06:36:08.484Z,12.18
2018-09-16T06:38:37.188Z,13.45
2018-09-16T06:41:05.451Z,11.75
2018-09-16T06:43:34.558Z,12.10
2018-09-16T06:46:02.764Z,11.97
2018-09-16T06:48:30.911Z,11.78
2018-09-16T06:50:59.113Z,11.70
2018-09-16T06:53:27.336Z,13.98
2018-09-16T06:55:55.530Z,11.95
2018-09-16T06:58:23.661Z,11.03
2018-09-16T07:00:51.966Z,12.10
2018-09-16T07:03:20.076Z,10.60
2018-09-16T07:05:48.341Z,10.08
2018-09-16T07:08:16.749Z,9.35
2018-09-16T07:10:44.956Z,10.35
2018-09-16T07:13:13.153Z,12.37
2018-09-16T07:15:41.376Z,9.50
2018-09-16T07:18:09.595Z,9.20
2018-09-16T07:20:37.748Z,9.98
2018-09-16T07:23:06.836Z,10.40
2018-09-16T07:25:34.939Z,9.23
2018-09-16T07:28:03.147Z,9.43
2018-09-16T07:30:31.371Z,9.43
2018-09-16T07:33:00.113Z,9.13
2018-09-16T07:35:28.394Z,9.10
2018-09-16T07:37:56.575Z,9.10
2018-09-16T07:40:24.688Z,9.40
2018-09-16T07:42:52.876Z,9.40
2018-09-16T07:45:21.090Z,10.58
2018-09-16T07:47:49.247Z,10.68
2018-09-16T07:50:17.362Z,9.63
2018-09-16T07:52:45.927Z,10.38
2018-09-16T07:55:14.067Z,11.53
2018-09-16T07:57:42.800Z,9.55
2018-09-16T08:00:11.082Z,9.58
2018-09-16T08:02:39.306Z,10.80
2018-09-16T08:05:07.631Z,10.10
2018-09-16T08:07:35.764Z,9.60
2018-09-16T08:10:03.940Z,10.88
2018-09-16T08:12:32.051Z,11.73
2018-09-16T08:15:00.222Z,9.08
2018-09-16T08:17:28.484Z,11.48
2018-09-16T08:19:56.659Z,10.15
2018-09-16T08:22:25.460Z,10.28
2018-09-16T08:24:53.721Z,10.70
2018-09-16T08:27:21.932Z,10.25
2018-09-16T08:29:50.032Z,9.88
2018-09-16T08:32:18.196Z,10.32
2018-09-16T08:34:50.097Z,11.83
2018-09-16T08:37:18.225Z,10.60
2018-09-16T08:39:46.707Z,9.45
2018-09-16T08:42:14.878Z,10.72
2018-09-16T08:44:43.124Z,10.75
2018-09-16T08:47:11.304Z,12.78
2018-09-16T08:49:39.452Z,10.18
2018-09-16T08:52:07.595Z,9.93
2018-09-16T08:54:35.793Z,11.12
2018-09-16T08:57:04.014Z,9.50
2018-09-16T08:59:32.127Z,9.08
2018-09-16T09:02:00.297Z,11.28
2018-09-16T09:04:28.917Z,9.68
2018-09-16T09:06:57.006Z,10.08
2018-09-16T09:09:25.242Z,9.80
2018-09-16T09:11:54.264Z,7.50
2018-09-16T09:14:22.593Z,8.63
2018-09-16T09:16:50.828Z,8.80
2018-09-16T09:19:19.129Z,9.35
2018-09-16T09:21:47.756Z,9.55
2018-09-16T09:24:15.871Z,7.87
2018-09-16T09:26:43.996Z,8.20
2018-09-16T09:29:12.216Z,6.00
2018-09-16T09:31:40.389Z,7.03
2018-09-16T09:34:08.524Z,5.20
2018-09-16T09:36:36.674Z,7.37
2018-09-16T09:39:06.588Z,7.00
2018-09-16T09:41:34.725Z,7.78
2018-09-16T09:44:02.897Z,7.17
2018-09-16T09:46:31.816Z,6.22
2018-09-16T09:49:00.204Z,7.42
2018-09-16T09:51:28.404Z,7.00
2018-09-16T09:53:56.724Z,5.83
2018-09-16T09:56:25.327Z,5.85
2018-09-16T09:58:53.484Z,7.15
2018-09-16T10:01:21.572Z,6.10
2018-09-16T10:03:50.382Z,4.87
2018-09-16T10:06:18.551Z,4.25
2018-09-16T10:08:46.991Z,6.00
2018-09-16T10:11:15.410Z,4.65
2018-09-16T10:13:43.572Z,3.37
2018-09-16T10:16:11.773Z,5.75
2018-09-16T10:18:40.016Z,3.55
2018-09-16T10:21:08.242Z,6.45
2018-09-16T10:23:36.481Z,4.47
2018-09-16T10:26:05.486Z,5.15
2018-09-16T10:28:33.752Z,4.67
2018-09-16T10:31:02.042Z,5.05
2018-09-16T10:33:30.241Z,4.22
2018-09-16T10:35:58.392Z,3.33
2018-09-16T10:38:26.617Z,4.65
2018-09-16T10:40:54.725Z,3.35
2018-09-16T10:43:22.922Z,2.60
2018-09-16T10:45:51.363Z,3.80
2018-09-16T10:48:19.642Z,3.92
2018-09-16T10:50:47.741Z,4.40
2018-09-16T10:53:15.996Z,4.78
2018-09-16T10:55:44.505Z,3.20
2018-09-16T10:58:12.844Z,5.03
2018-09-16T11:00:41.083Z,3.35
2018-09-16T11:03:10.319Z,2.90
2018-09-16T11:05:38.620Z,4.05
2018-09-16T11:08:07.021Z,2.75
2018-09-16T11:10:35.213Z,4.05
2018-09-16T11:13:03.324Z,3.15
2018-09-16T11:15:31.552Z,13.88
2018-09-16T11:17:59.699Z,20.60
2018-09-16T11:20:27.841Z,4.45
2018-09-16T11:22:56.544Z,4.47
2018-09-16T11:25:24.713Z,4.22
2018-09-16T11:27:52.820Z,33.80
2018-09-16T11:30:21.046Z,17.23
2018-09-16T11:32:49.380Z,2.92
2018-09-16T11:35:18.363Z,5.40
2018-09-16T11:37:46.536Z,3.67
2018-09-16T11:40:14.899Z,2.85
2018-09-16T11:42:43.032Z,3.70
2018-09-16T11:45:11.186Z,9.08
2018-09-16T11:47:39.348Z,2.70
2018-09-16T11:50:07.993Z,3.37
2018-09-16T11:52:36.100Z,2.50
2018-09-16T11:55:04.312Z,3.02
2018-09-16T11:57:32.456Z,3.50
2018-09-16T12:00:00.643Z,4.30
2018-09-16T12:02:28.876Z,3.25
2018-09-16T12:04:57.020Z,1.98
2018-09-16T12:07:25.297Z,2.60
2018-09-16T12:09:53.624Z,2.77
2018-09-16T12:12:22.642Z,2.75
2018-09-16T12:14:50.753Z,3.60
2018-09-16T12:17:18.948Z,3.77
2018-09-16T12:19:47.208Z,2.05
2018-09-16T12:22:15.457Z,3.75
2018-09-16T12:24:43.607Z,3.05
2018-09-16T12:27:14.736Z,4.25
2018-09-16T12:29:42.980Z,5.50
2018-09-16T12:32:11.136Z,2.83
2018-09-16T12:34:39.271Z,3.62
2018-09-16T12:37:07.648Z,3.25
2018-09-16T12:39:35.765Z,2.80
2018-09-16T12:42:04.017Z,2.50
2018-09-16T12:44:32.912Z,4.05
2018-09-16T12:47:01.004Z,3.25
2018-09-16T12:49:29.197Z,2.67
2018-09-16T12:51:57.301Z,2.15
2018-09-16T12:54:25.496Z,3.80
2018-09-16T12:56:53.676Z,2.60
2018-09-16T12:59:21.895Z,4.53
2018-09-16T13:01:50.182Z,1.92
2018-09-16T13:04:18.285Z,7.35
2018-09-16T13:06:46.476Z,3.00
2018-09-16T13:09:14.620Z,1.55
2018-09-16T13:11:42.844Z,9.00
2018-09-16T13:14:10.972Z,19.00
2018-09-16T13:16:39.299Z,5.78
2018-09-16T13:19:07.436Z,9.58
2018-09-16T13:21:35.780Z,4.28
2018-09-16T13:24:04.007Z,11.00
2018-09-16T13:26:32.190Z,1.55
2018-09-16T13:29:00.327Z,3.60
2018-09-16T13:31:28.897Z,2.75
2018-09-16T13:33:57.272Z,2.80
2018-09-16T13:36:25.420Z,2.65
2018-09-16T13:38:53.742Z,3.95
2018-09-16T13:41:22.768Z,2.65
2018-09-16T13:43:50.976Z,5.42
2018-09-16T13:46:19.487Z,3.17
2018-09-16T13:48:47.679Z,2.52
2018-09-16T13:51:15.946Z,2.62
2018-09-16T13:53:44.097Z,1.92
2018-09-16T13:56:12.252Z,4.12
2018-09-16T13:58:40.529Z,2.60
2018-09-16T14:01:08.657Z,1.95
2018-09-16T14:03:36.836Z,3.55
2018-09-16T14:06:05.007Z,2.87
2018-09-16T14:08:33.638Z,2.65
2018-09-16T14:11:02.058Z,3.52
2018-09-16T14:13:30.218Z,2.67
2018-09-16T14:15:58.419Z,2.42
2018-09-16T14:18:26.650Z,2.58
2018-09-16T14:20:54.928Z,2.70
2018-09-16T14:23:23.137Z,2.62
2018-09-16T14:25:51.351Z,2.25
2018-09-16T14:28:19.549Z,2.52
2018-09-16T14:30:47.856Z,2.10
2018-09-16T14:33:16.025Z,2.25
2018-09-16T14:35:44.230Z,2.67
2018-09-16T14:38:12.338Z,2.42
2018-09-16T14:40:40.544Z,1.45
2018-09-16T14:43:08.739Z,3.25
2018-09-16T14:48:11.787Z,3.70
2018-09-16T14:50:40.074Z,3.42
2018-09-16T14:53:08.345Z,2.25
2018-09-16T14:55:36.469Z,2.80
2018-09-16T14:58:05.278Z,2.67
2018-09-16T15:00:33.420Z,3.80
2018-09-16T15:03:01.633Z,1.98
2018-09-16T15:05:29.803Z,2.00
2018-09-16T15:07:58.162Z,2.08
2018-09-16T15:10:26.565Z,1.85
2018-09-16T15:12:54.713Z,1.90
2018-09-16T15:15:22.820Z,1.87
2018-09-16T15:17:51.081Z,2.55
2018-09-16T15:20:19.333Z,2.80
2018-09-16T15:22:47.572Z,3.50
2018-09-16T15:25:15.992Z,2.87
2018-09-16T15:27:44.363Z,2.55
2018-09-16T15:30:12.848Z,2.58
2018-09-16T15:32:41.067Z,2.62
2018-09-16T15:35:09.204Z,2.27
2018-09-16T15:37:37.407Z,2.65
2018-09-16T15:40:05.696Z,2.77
2018-09-16T15:42:33.980Z,2.58
2018-09-16T15:45:02.225Z,1.75
2018-09-16T15:47:30.400Z,2.00
2018-09-16T15:49:58.562Z,2.37
2018-09-16T15:52:26.846Z,3.83
2018-09-16T15:54:55.285Z,1.65
2018-09-16T15:57:23.447Z,4.42
2018-09-16T15:59:51.583Z,3.25
2018-09-16T16:02:19.916Z,1.90
2018-09-16T16:04:48.144Z,3.65
2018-09-16T16:07:16.289Z,3.92
2018-09-16T16:09:45.432Z,4.47
2018-09-16T16:12:13.683Z,3.45
2018-09-16T16:14:41.996Z,18.25
2018-09-16T16:17:10.952Z,3.12
2018-09-16T16:19:39.091Z,3.98
2018-09-16T16:22:07.312Z,3.17
2018-09-16T16:24:35.537Z,3.75
2018-09-16T16:27:05.196Z,1.85
2018-09-16T16:29:36.014Z,2.08
2018-09-16T16:37:37.590Z,2.58
2018-09-16T18:17:16.338Z,2.20
2018-09-16T18:19:44.546Z,4.35
2018-09-16T18:22:12.899Z,4.37
2018-09-16T18:24:41.266Z,5.33
2018-09-16T18:27:09.456Z,3.05
2018-09-16T18:29:37.748Z,4.78
2018-09-16T18:32:06.050Z,3.20
2018-09-16T18:34:34.733Z,5.30
2018-09-16T18:37:02.912Z,2.95
2018-09-16T18:39:31.265Z,4.30
2018-09-16T18:41:59.479Z,4.42
2018-09-16T18:44:27.652Z,3.58
2018-09-16T18:46:55.850Z,3.33
2018-09-16T18:49:24.032Z,2.77
2018-09-16T18:51:52.341Z,8.20
2018-09-16T18:54:20.509Z,5.70
2018-09-16T18:56:48.640Z,4.28
2018-09-16T18:59:16.825Z,2.87
2018-09-16T19:01:44.988Z,4.70
2018-09-16T19:04:13.113Z,2.92
2018-09-16T19:06:41.243Z,2.83
2018-09-16T19:09:10.081Z,2.70
2018-09-16T19:11:38.854Z,3.60
2018-09-16T19:14:07.124Z,4.42
2018-09-16T19:16:35.297Z,5.03
2018-09-16T19:19:03.417Z,2.92
2018-09-16T19:21:31.729Z,2.60
2018-09-16T19:23:59.895Z,5.00
2018-09-16T19:26:28.416Z,5.85
2018-09-16T19:28:56.688Z,5.05
2018-09-16T19:31:25.033Z,3.85
2018-09-16T19:33:53.526Z,5.20
2018-09-16T19:36:21.936Z,2.95
2018-09-16T19:38:50.302Z,3.10
2018-09-16T19:41:18.530Z,4.85
2018-09-16T19:43:46.730Z,3.27
2018-09-16T19:46:14.962Z,3.12
2018-09-16T19:48:43.168Z,3.52
2018-09-16T19:51:11.282Z,4.17
2018-09-16T19:53:39.495Z,4.33
2018-09-16T19:56:07.601Z,4.70
2018-09-16T19:58:36.548Z,3.05
2018-09-16T20:01:04.949Z,5.42
2018-09-16T20:03:33.809Z,4.75
2018-09-16T20:06:02.095Z,3.95
2018-09-16T20:08:30.557Z,2.98
2018-09-16T20:10:58.781Z,4.08
2018-09-16T20:13:26.911Z,4.25
2018-09-16T20:15:55.182Z,3.90
2018-09-16T20:18:23.353Z,6.20
2018-09-16T20:20:51.620Z,3.60
2018-09-16T20:23:19.781Z,4.58
2018-09-16T20:25:47.936Z,4.33
2018-09-16T20:28:16.528Z,3.20
2018-09-16T20:30:45.225Z,4.03
2018-09-16T20:33:13.396Z,3.90
2018-09-16T20:35:41.565Z,4.05
2018-09-16T20:38:09.734Z,4.10
2018-09-16T20:40:38.009Z,5.78
2018-09-16T20:43:06.412Z,3.58
2018-09-16T20:45:34.555Z,4.12
2018-09-16T20:48:02.700Z,4.12
2018-09-16T20:50:31.140Z,4.33
2018-09-16T20:52:59.393Z,3.80
2018-09-16T20:55:28.244Z,5.20
2018-09-16T20:57:56.353Z,6.28
2018-09-16T21:00:24.699Z,5.37
2018-09-16T21:02:53.617Z,6.47
2018-09-16T21:05:22.969Z,4.92
2018-09-16T21:07:51.261Z,6.20
2018-09-16T21:10:19.556Z,7.37
2018-09-16T21:12:47.781Z,4.83
2018-09-16T21:15:15.936Z,4.58
2018-09-16T21:17:44.105Z,7.25
2018-09-16T21:20:12.293Z,5.53
2018-09-16T21:22:41.309Z,6.30
2018-09-16T21:25:10.512Z,7.58
2018-09-16T21:27:39.416Z,6.08
2018-09-16T21:30:07.592Z,4.58
2018-09-16T21:32:35.710Z,3.47
2018-09-16T21:35:04.065Z,4.80
2018-09-16T21:37:32.411Z,4.03
2018-09-16T21:40:00.660Z,3.83
2018-09-16T21:42:29.359Z,4.10
2018-09-16T21:44:57.479Z,5.60
2018-09-16T21:47:25.741Z,5.60
2018-09-16T21:49:53.827Z,7.78
2018-09-16T21:52:22.353Z,12.10
2018-09-16T21:54:50.535Z,6.15
2018-09-16T21:57:18.902Z,4.12
2018-09-16T21:59:46.939Z,3.47
2018-09-16T22:02:15.124Z,2.95
2018-09-16T22:04:43.312Z,3.65
2018-09-16T22:07:11.440Z,4.05
2018-09-16T22:09:39.604Z,3.47
2018-09-16T22:12:07.810Z,4.22
2018-09-16T22:14:36.131Z,4.10
2018-09-16T22:17:04.208Z,4.00
2018-09-16T22:19:32.328Z,3.47
2018-09-16T22:22:00.881Z,4.67
2018-09-16T22:24:28.991Z,3.95
2018-09-16T22:26:57.180Z,2.92
2018-09-16T22:29:25.279Z,3.72
2018-09-16T22:31:53.412Z,2.60
2018-09-16T22:34:21.599Z,3.45
2018-09-16T22:36:49.746Z,2.58
2018-09-16T22:39:17.828Z,3.15
2018-09-16T22:41:45.956Z,4.92
2018-09-16T22:44:14.090Z,2.83
2018-09-16T22:46:42.235Z,3.72
2018-09-16T22:49:10.384Z,2.87
2018-09-16T22:51:38.521Z,3.98
2018-09-16T22:54:06.853Z,3.72
2018-09-16T22:56:35.068Z,3.92
2018-09-16T22:59:03.789Z,4.17
2018-09-16T23:01:32.016Z,3.72
2018-09-16T23:04:00.309Z,4.03
2018-09-16T23:06:28.488Z,4.80
2018-09-16T23:09:02.340Z,3.17
2018-09-16T23:11:30.423Z,3.75
2018-09-16T23:13:58.560Z,3.83
2018-09-16T23:16:26.671Z,5.12
2018-09-16T23:18:54.788Z,4.92
2018-09-16T23:21:22.947Z,3.00
2018-09-16T23:23:51.112Z,3.25
2018-09-16T23:26:19.320Z,5.25
2018-09-16T23:28:47.654Z,3.92
2018-09-16T23:31:15.840Z,4.03
2018-09-16T23:33:43.984Z,5.10
2018-09-16T23:36:12.091Z,6.45
2018-09-16T23:38:40.288Z,3.87
2018-09-16T23:41:08.376Z,4.67
2018-09-16T23:43:37.127Z,5.00
2018-09-16T23:46:05.341Z,3.47
2018-09-16T23:48:33.544Z,4.92
2018-09-16T23:51:01.716Z,4.22
2018-09-16T23:53:29.820Z,3.92
2018-09-16T23:55:57.928Z,4.78
2018-09-16T23:58:26.034Z,5.25
